Time;durP1;ratioP1;P1;durP2;ratioP2;P2;SDS_P1;SDS_P2;PMS_P1;PMS_P2;Temp;Humidity;BMP_temperature;BMP_pressure;BME280_temperature;BME280_humidity;BME280_pressure;Samples;Min_cycle;Max_cycle;Signal;HPM_P1;HPM_P2
2022/12/04 06:48:37;;;;;;;19.42;10.68;;;16.30;58.20;;;;;;10650857;27;20336;-49
2022/12/04 06:53:38;;;;;;;18.23;10.82;;;16.30;59.50;;;;;;10608505;28;20033;-51
2022/12/04 06:58:39;;;;;;;20.30;10.05;;;16.40;59.90;;;;;;10607038;28;20019;-48
2022/12/04 07:03:40;;;;;;;19.05;12.02;;;16.60;60.40;;;;;;10593712;28;20011;-50
2022/12/04 07:08:44;;;;;;;21.50;10.52;;;16.60;60.90;;;;;;10583509;28;20553;-48
2022/12/04 07:13:44;;;;;;;17.88;11.57;;;16.40;61.80;;;;;;10604239;28;20030;-48
2022/12/04 07:18:45;;;;;;;17.77;10.93;;;16.30;61.40;;;;;;10607614;27;20099;-47
2022/12/04 07:23:56;;;;;;;19.42;10.77;;;16.20;61.30;;;;;;10590467;27;20023;-48
2022/12/04 07:28:58;;;;;;;20.67;10.73;;;16.30;61.60;;;;;;10593489;28;20106;-46
2022/12/04 07:33:59;;;;;;;21.75;11.18;;;16.20;62.20;;;;;;10592100;27;20012;-47
2022/12/04 07:39:00;;;;;;;17.88;11.20;;;16.20;61.90;;;;;;10573507;28;20216;-48
2022/12/04 07:44:00;;;;;;;21.10;11.63;;;16.20;62.20;;;;;;10580995;28;20047;-47
2022/12/04 07:49:02;;;;;;;18.60;10.50;;;16.10;63.20;;;;;;10586671;27;20019;-48
2022/12/04 07:54:03;;;;;;;16.75;10.15;;;16.10;61.80;;;;;;10589765;28;20028;-48
2022/12/04 07:59:03;;;;;;;21.52;10.60;;;16.10;62.10;;;;;;10578954;27;20024;-51
2022/12/04 08:04:04;;;;;;;17.80;10.55;;;16.10;61.90;;;;;;10549954;28;20031;-52
2022/12/04 08:09:06;;;;;;;16.58;10.00;;;16.20;61.20;;;;;;10538522;28;20012;-52
2022/12/04 08:14:10;;;;;;;21.42;11.02;;;16.20;60.80;;;;;;10543521;28;20074;-51
2022/12/04 08:19:10;;;;;;;23.08;10.48;;;16.20;61.10;;;;;;10562201;28;20034;-50
2022/12/04 08:24:11;;;;;;;20.27;11.35;;;16.20;61.30;;;;;;10570637;27;20123;-53
2022/12/04 08:29:12;;;;;;;22.83;11.00;;;16.20;61.40;;;;;;10516367;28;20072;-49
2022/12/04 08:34:13;;;;;;;23.33;11.50;;;16.20;61.00;;;;;;10547941;27;20467;-49
2022/12/04 08:39:13;;;;;;;22.85;12.23;;;16.10;61.20;;;;;;10574087;27;20427;-48
2022/12/04 08:44:14;;;;;;;25.17;13.55;;;16.00;62.30;;;;;;10522688;28;20127;-50
2022/12/04 08:49:14;;;;;;;22.52;12.43;;;16.00;62.90;;;;;;10571312;27;20016;-48
2022/12/04 08:54:15;;;;;;;20.50;11.38;;;15.90;63.40;;;;;;10533284;28;20112;-46
2022/12/04 08:59:16;;;;;;;24.38;13.75;;;15.80;63.60;;;;;;10546893;28;20049;-49
2022/12/04 09:04:17;;;;;;;19.92;11.40;;;15.90;64.20;;;;;;10548806;27;20823;-49
2022/12/04 09:09:18;;;;;;;23.90;11.45;;;16.00;64.40;;;;;;10530619;28;20016;-48
2022/12/04 09:14:24;;;;;;;26.58;12.10;;;16.00;64.60;;;;;;10544897;28;20024;-50
2022/12/04 09:19:25;;;;;;;22.60;11.45;;;16.00;64.80;;;;;;10550450;27;20030;-47
2022/12/04 09:24:27;;;;;;;20.92;11.25;;;16.10;65.10;;;;;;10569788;27;20027;-49
2022/12/04 09:29:27;;;;;;;25.45;11.27;;;16.10;65.00;;;;;;10569200;27;20012;-48
2022/12/04 09:34:28;;;;;;;23.48;12.63;;;16.00;65.30;;;;;;10555079;27;20012;-46
2022/12/04 09:39:29;;;;;;;22.95;11.10;;;15.90;65.30;;;;;;10550980;27;20103;-50
2022/12/04 09:45:06;;;;;;;31.38;13.80;;;15.90;66.00;;;;;;10543190;28;20056;-48
2022/12/04 09:50:33;;;;;;;24.08;12.40;;;15.90;65.80;;;;;;10556731;27;20034;-49
2022/12/04 09:55:53;;;;;;;21.98;11.45;;;16.00;65.70;;;;;;10546588;27;20043;-47
2022/12/04 10:00:55;;;;;;;23.83;11.55;;;16.00;65.20;;;;;;10542595;27;20031;-49
2022/12/04 10:06:19;;;;;;;29.30;11.32;;;15.90;65.10;;;;;;10552327;28;20035;-51
2022/12/04 10:11:25;;;;;;;22.38;10.05;;;15.90;65.30;;;;;;10567048;27;20032;-49
2022/12/04 10:17:09;;;;;;;21.58;11.80;;;16.00;65.60;;;;;;10556691;27;20020;-51
2022/12/04 10:22:28;;;;;;;22.80;11.32;;;16.00;65.90;;;;;;10546442;27;20077;-51
2022/12/04 10:27:48;;;;;;;19.88;9.65;;;16.00;66.30;;;;;;10557488;28;20032;-52
2022/12/04 10:32:58;;;;;;;15.00;9.17;;;15.80;66.20;;;;;;10560324;27;20107;-52
2022/12/04 10:38:10;;;;;;;21.77;10.63;;;15.90;66.20;;;;;;10542056;28;20035;-50
2022/12/04 10:43:21;;;;;;;19.77;10.02;;;15.90;65.90;;;;;;10528760;28;20130;-51
2022/12/04 10:48:33;;;;;;;26.92;9.40;;;15.80;66.50;;;;;;10556921;28;20043;-52
2022/12/04 10:53:35;;;;;;;29.83;11.27;;;15.90;66.30;;;;;;10568062;28;20026;-52
2022/12/04 10:58:36;;;;;;;21.52;9.75;;;15.90;66.20;;;;;;10529436;28;20056;-48
2022/12/04 11:03:37;;;;;;;26.85;9.85;;;15.90;66.10;;;;;;10527656;28;20352;-54
2022/12/04 11:08:42;;;;;;;27.73;10.95;;;15.90;66.40;;;;;;10550927;28;20031;-52
2022/12/04 11:13:42;;;;;;;25.83;9.32;;;16.00;65.90;;;;;;10551882;28;20375;-52
2022/12/04 11:18:49;;;;;;;29.77;9.75;;;16.00;66.60;;;;;;10549739;28;20051;-52
2022/12/04 11:23:51;;;;;;;23.33;9.90;;;15.90;66.60;;;;;;10581906;28;20096;-54
2022/12/04 11:28:53;;;;;;;21.75;10.38;;;15.90;66.80;;;;;;10527965;28;20044;-51
2022/12/04 11:34:07;;;;;;;21.25;9.30;;;15.80;67.70;;;;;;10562978;28;20023;-52
2022/12/04 11:39:18;;;;;;;28.40;10.32;;;15.80;67.90;;;;;;10558226;28;20101;-54
2022/12/04 11:44:26;;;;;;;20.35;8.10;;;15.80;67.70;;;;;;10535106;28;20043;-53
2022/12/04 11:49:30;;;;;;;26.17;9.43;;;15.80;67.90;;;;;;10535001;28;20043;-53
2022/12/04 11:54:50;;;;;;;25.15;9.80;;;15.80;67.60;;;;;;10549520;28;20027;-54
2022/12/04 12:00:03;;;;;;;18.52;8.95;;;15.70;67.70;;;;;;10563179;28;20023;-54
2022/12/04 12:05:46;;;;;;;22.60;8.23;;;15.70;67.80;;;;;;10556164;28;20109;-53
2022/12/04 12:11:12;;;;;;;21.10;7.75;;;15.70;67.70;;;;;;10554099;28;20018;-52
2022/12/04 12:17:02;;;;;;;18.33;8.38;;;15.70;67.50;;;;;;10574200;28;20348;-51
2022/12/04 12:22:51;;;;;;;22.10;8.95;;;15.80;67.80;;;;;;10583611;27;20148;-53
2022/12/04 12:28:08;;;;;;;18.98;8.93;;;15.90;67.30;;;;;;10544885;27;20036;-52
2022/12/04 12:33:18;;;;;;;21.23;7.95;;;15.90;66.70;;;;;;10570426;27;20374;-53
2022/12/04 12:38:32;;;;;;;14.40;6.80;;;15.90;66.70;;;;;;10542134;28;20024;-52
2022/12/04 12:43:38;;;;;;;22.95;7.13;;;16.00;66.60;;;;;;10557343;28;20024;-54
2022/12/04 12:49:10;;;;;;;14.63;7.05;;;16.10;66.60;;;;;;10536508;28;20174;-53
2022/12/04 12:55:01;;;;;;;24.90;7.18;;;16.10;67.00;;;;;;10548409;28;20036;-53
2022/12/04 13:00:20;;;;;;;;;;;16.00;67.30;;;;;;10554961;28;20032;-54
2022/12/04 13:05:32;;;;;;;22.80;8.85;;;16.00;67.20;;;;;;10560184;28;19958;-51
2022/12/04 13:10:51;;;;;;;21.05;7.00;;;15.90;67.00;;;;;;10543272;28;20487;-54
2022/12/04 13:16:05;;;;;;;23.60;9.53;;;15.90;67.30;;;;;;10545396;28;20027;-53
2022/12/04 13:21:09;;;;;;;35.55;8.95;;;15.80;67.50;;;;;;10548698;28;20056;-52
2022/12/04 13:26:48;;;;;;;19.05;7.78;;;15.80;67.20;;;;;;10563307;28;20089;-52
2022/12/04 13:32:21;;;;;;;34.53;10.13;;;15.80;67.30;;;;;;10559806;28;20015;-50
2022/12/04 13:38:21;;;;;;;23.02;7.30;;;15.70;67.10;;;;;;10548121;28;20108;-49
2022/12/04 13:43:47;;;;;;;25.13;8.60;;;15.70;66.50;;;;;;10557089;28;20020;-51
2022/12/04 13:48:48;;;;;;;32.63;8.75;;;15.80;66.60;;;;;;10546893;27;20047;-54
2022/12/04 13:54:09;;;;;;;25.27;7.70;;;15.80;67.00;;;;;;10537506;28;20479;-53
2022/12/04 13:59:37;;;;;;;23.80;8.07;;;15.70;67.40;;;;;;10545976;28;20395;-49
2022/12/04 14:04:45;;;;;;;26.10;8.13;;;15.70;67.00;;;;;;10545216;28;20039;-50
2022/12/04 14:09:52;;;;;;;24.40;6.85;;;15.80;66.70;;;;;;10529792;28;20024;-48
2022/12/04 14:15:00;;;;;;;19.65;7.60;;;15.80;66.30;;;;;;10538255;28;20536;-52
2022/12/04 14:20:20;;;;;;;28.95;8.55;;;15.90;66.30;;;;;;10540474;27;20023;-52
2022/12/04 14:25:36;;;;;;;20.80;7.32;;;15.80;65.80;;;;;;10543945;27;20646;-53
2022/12/04 14:30:39;;;;;;;22.70;7.35;;;15.90;66.60;;;;;;10572363;28;20050;-52
2022/12/04 14:35:54;;;;;;;21.73;6.72;;;15.90;66.80;;;;;;10565753;28;20107;-51
2022/12/04 14:40:57;;;;;;;23.08;7.55;;;15.80;67.20;;;;;;10528867;28;20032;-49
2022/12/04 14:46:31;;;;;;;21.27;7.97;;;15.80;67.50;;;;;;10531008;28;20127;-50
2022/12/04 14:51:36;;;;;;;16.10;6.00;;;15.90;67.20;;;;;;10534823;28;20533;-49
2022/12/04 14:57:07;;;;;;;25.48;8.68;;;15.90;67.10;;;;;;10539235;28;20583;-48
2022/12/04 15:02:26;;;;;;;18.60;6.80;;;15.90;67.30;;;;;;10549136;28;20050;-47
2022/12/04 15:07:31;;;;;;;23.75;7.97;;;15.90;67.00;;;;;;10548110;28;20027;-46
2022/12/04 15:12:51;;;;;;;23.38;6.63;;;15.80;67.10;;;;;;10538699;28;20066;-49
2022/12/04 15:18:09;;;;;;;23.20;7.50;;;15.90;67.20;;;;;;10550752;28;20020;-46
2022/12/04 15:23:20;;;;;;;24.83;7.13;;;15.90;66.70;;;;;;10559588;28;20106;-50
2022/12/04 15:28:48;;;;;;;22.98;7.65;;;15.90;66.50;;;;;;10544392;28;20051;-48
2022/12/04 15:33:55;;;;;;;21.90;8.32;;;15.90;66.10;;;;;;10549619;28;20024;-48
2022/12/04 15:38:58;;;;;;;14.45;6.07;;;15.90;66.70;;;;;;10539989;28;20019;-47
2022/12/04 15:43:59;;;;;;;22.88;7.60;;;15.90;66.10;;;;;;10548872;28;20044;-52
2022/12/04 15:49:18;;;;;;;21.23;8.10;;;15.90;65.70;;;;;;10535132;28;20027;-52
2022/12/04 15:54:23;;;;;;;18.45;8.02;;;15.90;66.30;;;;;;10534919;28;20021;-52
2022/12/04 15:59:27;;;;;;;14.75;7.05;;;16.00;66.40;;;;;;10535020;28;20032;-52
2022/12/04 16:04:28;;;;;;;24.88;7.55;;;16.10;66.00;;;;;;10535997;28;20109;-53
2022/12/04 16:09:29;;;;;;;21.23;7.50;;;16.10;65.80;;;;;;10535432;28;20032;-53
2022/12/04 16:14:30;;;;;;;20.45;8.00;;;16.00;66.00;;;;;;10535130;28;20072;-51
2022/12/04 16:19:31;;;;;;;96.97;51.65;;;15.90;66.10;;;;;;10564079;27;20047;-50
2022/12/04 16:24:32;;;;;;;62.35;32.20;;;16.00;65.30;;;;;;10567824;27;20039;-50
2022/12/04 16:29:33;;;;;;;49.50;25.73;;;16.10;64.10;;;;;;10516679;28;20058;-50
2022/12/04 16:34:33;;;;;;;41.10;21.92;;;16.30;63.30;;;;;;10543180;27;20094;-51
2022/12/04 16:39:34;;;;;;;50.13;24.55;;;16.50;62.30;;;;;;10576784;28;20115;-48
2022/12/04 16:44:38;;;;;;;38.17;22.77;;;16.50;60.90;;;;;;10550464;28;20067;-48
2022/12/04 16:49:39;;;;;;;42.97;24.33;;;16.70;60.60;;;;;;10534040;28;20036;-49
2022/12/04 16:54:40;;;;;;;42.00;22.55;;;16.70;59.30;;;;;;10546240;28;20569;-50
2022/12/04 16:59:41;;;;;;;44.53;23.73;;;16.70;59.40;;;;;;10547024;28;20028;-49
2022/12/04 17:04:42;;;;;;;38.47;21.88;;;16.80;59.20;;;;;;10573782;28;20533;-48
2022/12/04 17:09:42;;;;;;;35.28;20.15;;;16.90;59.30;;;;;;10562430;28;20022;-46
2022/12/04 17:14:43;;;;;;;39.20;17.60;;;17.10;59.50;;;;;;10542809;27;20056;-52
2022/12/04 17:19:45;;;;;;;35.65;18.77;;;17.30;61.30;;;;;;10537991;27;20094;-52
2022/12/04 17:24:46;;;;;;;35.10;18.60;;;17.30;61.60;;;;;;10529993;28;20028;-51
2022/12/04 17:29:47;;;;;;;35.25;16.10;;;17.30;62.80;;;;;;10531593;28;20017;-50
2022/12/04 17:34:48;;;;;;;37.78;15.88;;;17.20;62.30;;;;;;10555273;28;20012;-51
2022/12/04 17:39:48;;;;;;;34.55;17.33;;;17.30;62.30;;;;;;10562629;28;20039;-52
2022/12/04 17:44:49;;;;;;;36.60;14.50;;;17.40;61.80;;;;;;10530301;28;20455;-50
2022/12/04 17:49:50;;;;;;;23.25;14.27;;;17.60;60.80;;;;;;10531855;28;20028;-53
2022/12/04 17:54:51;;;;;;;24.30;13.93;;;17.70;60.30;;;;;;10558285;28;20422;-52
2022/12/04 17:59:52;;;;;;;28.77;13.10;;;17.40;60.70;;;;;;10551321;28;20032;-49
2022/12/04 18:04:53;;;;;;;30.48;14.73;;;17.30;60.90;;;;;;10558245;28;20063;-50
2022/12/04 18:09:54;;;;;;;32.53;14.82;;;17.30;61.00;;;;;;10552195;28;20092;-49
2022/12/04 18:14:55;;;;;;;26.08;12.43;;;17.20;61.00;;;;;;10555678;28;20590;-51
2022/12/04 18:19:55;;;;;;;26.08;11.77;;;17.10;61.50;;;;;;10556222;27;20059;-51
2022/12/04 18:24:56;;;;;;;27.50;12.13;;;16.90;61.80;;;;;;10557558;28;20127;-51
2022/12/04 18:29:56;;;;;;;26.35;12.52;;;16.80;62.00;;;;;;10544238;28;20443;-50
2022/12/04 18:34:57;;;;;;;24.95;11.57;;;16.60;62.30;;;;;;10554759;28;20102;-50
2022/12/04 18:39:58;;;;;;;24.35;13.02;;;16.50;62.30;;;;;;10531591;28;20062;-53
2022/12/04 18:44:59;;;;;;;22.85;11.73;;;16.50;63.00;;;;;;10529793;28;20059;-50
2022/12/04 18:49:59;;;;;;;23.20;12.20;;;16.40;63.00;;;;;;10530100;28;20060;-48
2022/12/04 18:55:00;;;;;;;20.20;12.02;;;16.30;63.20;;;;;;10528236;28;20829;-50
2022/12/04 19:00:01;;;;;;;24.83;11.32;;;16.10;63.60;;;;;;10543787;28;20020;-48
2022/12/04 19:05:02;;;;;;;26.33;12.15;;;16.00;63.60;;;;;;10552936;28;20039;-51
2022/12/04 19:10:04;;;;;;;28.23;13.30;;;16.00;63.60;;;;;;10538893;28;20048;-51
2022/12/04 19:15:05;;;;;;;19.42;10.93;;;16.00;63.80;;;;;;10528023;28;20130;-52
2022/12/04 19:20:07;;;;;;;22.23;12.18;;;15.90;63.40;;;;;;10524361;28;20076;-50
2022/12/04 19:25:08;;;;;;;31.60;11.70;;;16.00;63.10;;;;;;10537064;27;20842;-51
2022/12/04 19:30:09;;;;;;;18.52;10.38;;;16.00;62.90;;;;;;10528952;28;20027;-52
2022/12/04 19:35:10;;;;;;;19.13;9.88;;;16.00;62.80;;;;;;10542497;28;20057;-51
2022/12/04 19:40:12;;;;;;;18.17;10.55;;;16.00;62.90;;;;;;10528817;28;20065;-49
2022/12/04 19:45:13;;;;;;;15.23;9.23;;;16.10;62.80;;;;;;10553274;28;20140;-50
2022/12/04 19:50:14;;;;;;;15.07;9.35;;;16.10;62.90;;;;;;10527921;28;20115;-48
2022/12/04 19:55:14;;;;;;;17.40;11.90;;;16.10;62.70;;;;;;10534405;28;20444;-47
2022/12/04 20:00:15;;;;;;;18.27;9.65;;;16.10;62.80;;;;;;10554926;28;20571;-52
2022/12/04 20:05:16;;;;;;;16.17;10.20;;;16.20;62.90;;;;;;10554732;28;20101;-51
2022/12/04 20:10:17;;;;;;;36.78;10.35;;;16.30;63.20;;;;;;10549064;28;20012;-51
2022/12/04 20:15:17;;;;;;;15.02;11.18;;;16.20;63.40;;;;;;10559793;28;20046;-50
2022/12/04 20:20:18;;;;;;;17.30;10.75;;;16.30;63.00;;;;;;10561076;27;20059;-51
2022/12/04 20:25:19;;;;;;;17.67;9.98;;;16.10;63.00;;;;;;10548170;28;20088;-48
2022/12/04 20:30:20;;;;;;;13.43;10.55;;;16.10;63.00;;;;;;10550059;28;20020;-52
2022/12/04 20:35:20;;;;;;;14.52;8.95;;;16.10;63.00;;;;;;10574791;28;20583;-50
2022/12/04 20:40:21;;;;;;;15.48;9.10;;;16.00;63.00;;;;;;10558348;28;20549;-51
2022/12/04 20:45:21;;;;;;;12.32;9.38;;;16.00;62.90;;;;;;10530693;28;20156;-47
2022/12/04 20:50:22;;;;;;;12.75;8.85;;;16.10;62.80;;;;;;10530367;28;20153;-50
2022/12/04 20:55:23;;;;;;;12.40;9.35;;;16.10;62.60;;;;;;10536617;28;20062;-48
2022/12/04 21:00:24;;;;;;;14.50;9.80;;;16.10;62.60;;;;;;10539334;28;20058;-48
2022/12/04 21:05:24;;;;;;;14.50;9.85;;;16.10;62.40;;;;;;10533307;28;20664;-50
2022/12/04 21:10:26;;;;;;;14.77;10.32;;;16.10;62.40;;;;;;10532093;28;20044;-49
2022/12/04 21:20:46;;;;;;;12.75;8.82;;;16.10;62.10;;;;;;10571640;27;20110;-48
2022/12/04 21:25:46;;;;;;;15.98;8.98;;;16.20;62.10;;;;;;10532615;28;20028;-52
2022/12/04 21:30:47;;;;;;;12.38;9.55;;;16.10;61.90;;;;;;10532514;28;20099;-50
2022/12/04 21:35:48;;;;;;;13.25;9.02;;;16.20;62.00;;;;;;10546196;28;20048;-49
2022/12/04 21:40:48;;;;;;;14.57;10.02;;;16.20;61.80;;;;;;10544662;28;20024;-50
2022/12/04 21:46:01;;;;;;;13.85;8.88;;;16.20;61.80;;;;;;10552520;28;20058;-48
2022/12/04 21:51:06;;;;;;;12.48;9.27;;;16.20;61.90;;;;;;10557571;28;20114;-48
2022/12/04 21:56:07;;;;;;;14.50;9.30;;;16.10;61.80;;;;;;10573210;28;20019;-52
2022/12/04 22:01:10;;;;;;;11.60;8.73;;;16.10;61.90;;;;;;10572199;28;20073;-51
2022/12/04 22:06:11;;;;;;;12.30;9.30;;;16.10;62.00;;;;;;10558247;28;20105;-52
2022/12/04 22:11:14;;;;;;;10.23;7.22;;;16.10;61.90;;;;;;10529780;28;20052;-48
2022/12/04 22:16:16;;;;;;;12.32;8.30;;;16.10;61.80;;;;;;10560598;28;20016;-52
2022/12/04 22:21:17;;;;;;;12.45;9.10;;;16.10;61.90;;;;;;10563009;27;20024;-49
2022/12/04 22:26:20;;;;;;;11.95;8.57;;;16.10;61.80;;;;;;10529157;28;20480;-49
2022/12/04 22:31:24;;;;;;;11.80;8.23;;;16.10;61.80;;;;;;10529406;28;20692;-52
2022/12/04 22:36:29;;;;;;;11.40;7.88;;;16.10;61.80;;;;;;10552513;27;20021;-51
2022/12/04 22:41:29;;;;;;;9.60;8.07;;;16.10;62.30;;;;;;10529888;28;20483;-51
2022/12/04 22:46:30;;;;;;;11.93;8.02;;;16.10;61.90;;;;;;10529687;28;20149;-50
2022/12/04 22:51:31;;;;;;;12.55;8.63;;;16.10;61.80;;;;;;10529873;28;20016;-51
2022/12/04 22:56:32;;;;;;;12.32;8.43;;;16.10;61.80;;;;;;10529856;28;20028;-50
2022/12/04 23:01:33;;;;;;;15.35;8.70;;;16.10;61.60;;;;;;10543210;28;20588;-50
2022/12/04 23:06:34;;;;;;;9.50;7.82;;;16.10;61.60;;;;;;10528311;28;20036;-50
2022/12/04 23:11:36;;;;;;;10.88;7.65;;;16.10;61.60;;;;;;10548016;28;20047;-51
2022/12/04 23:16:38;;;;;;;10.73;8.18;;;16.20;61.50;;;;;;10549006;28;20760;-50
2022/12/04 23:21:39;;;;;;;10.90;8.38;;;16.20;61.40;;;;;;10549712;28;20043;-52
2022/12/04 23:26:43;;;;;;;10.38;8.02;;;16.20;61.30;;;;;;10529300;28;20038;-49
2022/12/04 23:31:44;;;;;;;9.50;7.30;;;16.10;61.30;;;;;;10535930;28;20352;-50
2022/12/04 23:36:45;;;;;;;9.65;7.85;;;16.20;61.50;;;;;;10563645;28;20051;-50
2022/12/04 23:41:45;;;;;;;10.38;7.55;;;16.10;61.40;;;;;;10551468;28;20746;-52
2022/12/04 23:46:46;;;;;;;10.15;7.97;;;16.10;61.50;;;;;;10563760;28;20131;-51
2022/12/04 23:51:47;;;;;;;8.52;7.13;;;16.10;62.10;;;;;;10564100;28;20153;-51
2022/12/04 23:56:47;;;;;;;10.45;7.45;;;16.10;61.50;;;;;;10563374;28;20558;-52
